createdAt,value
2023-02-13T00:03:21.455Z,65.42
2023-02-13T00:08:23.145Z,65.38
2023-02-13T00:13:24.758Z,65.33
2023-02-13T00:18:27.777Z,64.93
2023-02-13T00:23:31.620Z,65.15
2023-02-13T00:28:33.528Z,65.13
2023-02-13T00:33:35.698Z,64.61
2023-02-13T00:38:38.813Z,64.60
2023-02-13T00:43:40.695Z,64.64
2023-02-13T00:48:42.380Z,64.49
2023-02-13T00:53:43.986Z,64.33
2023-02-13T00:58:46.055Z,64.15
2023-02-13T01:03:47.740Z,64.32
2023-02-13T01:08:49.427Z,64.15
2023-02-13T01:13:51.026Z,64.25
2023-02-13T01:18:52.619Z,64.31
2023-02-13T01:23:54.223Z,64.29
2023-02-13T01:28:57.788Z,64.31
2023-02-13T01:33:59.923Z,64.32
2023-02-13T01:39:01.651Z,64.14
2023-02-13T01:44:03.814Z,64.00
2023-02-13T01:49:23.674Z,64.17
2023-02-13T01:54:31.422Z,64.16
2023-02-13T01:59:55.192Z,64.23
2023-02-13T02:04:56.800Z,64.40
2023-02-13T02:10:07.637Z,64.36
2023-02-13T02:15:09.971Z,64.49
2023-02-13T02:20:20.463Z,64.90
2023-02-13T02:25:53.036Z,65.29
2023-02-13T02:31:06.593Z,65.78
2023-02-13T02:36:57.079Z,66.22
2023-02-13T02:42:11.776Z,66.34
2023-02-13T02:47:42.803Z,66.08
2023-02-13T02:53:02.438Z,66.40
2023-02-13T02:58:38.800Z,66.75
2023-02-13T03:03:59.535Z,66.51
2023-02-13T03:09:22.754Z,66.82
2023-02-13T03:14:27.394Z,67.04
2023-02-13T03:20:16.555Z,67.06
2023-02-13T03:25:30.375Z,67.01
2023-02-13T03:30:49.762Z,67.38
2023-02-13T03:36:28.828Z,67.10
2023-02-13T03:41:52.777Z,67.54
2023-02-13T03:46:58.486Z,67.60
2023-02-13T03:52:16.206Z,67.86
2023-02-13T03:57:40.274Z,68.14
2023-02-13T04:02:54.935Z,68.38
2023-02-13T04:07:56.873Z,68.12
2023-02-13T04:13:24.009Z,68.03
2023-02-13T04:18:30.783Z,67.96
2023-02-13T04:23:32.840Z,68.43
2023-02-13T04:28:34.506Z,68.03
2023-02-13T04:33:36.112Z,68.62
2023-02-13T04:38:37.697Z,68.26
2023-02-13T04:43:39.366Z,67.94
2023-02-13T04:48:40.984Z,67.67
2023-02-13T04:53:42.588Z,67.83
2023-02-13T04:58:44.175Z,67.76
2023-02-13T05:03:46.002Z,67.77
2023-02-13T05:08:47.689Z,67.74
2023-02-13T05:13:49.281Z,67.77
2023-02-13T05:18:54.900Z,67.85
2023-02-13T05:23:56.562Z,67.98
2023-02-13T05:29:16.660Z,67.81
2023-02-13T05:34:18.754Z,68.00
2023-02-13T05:39:20.764Z,68.11
2023-02-13T05:44:22.419Z,67.84
2023-02-13T05:49:24.071Z,67.23
2023-02-13T05:54:25.753Z,67.88
2023-02-13T05:59:27.366Z,67.82
2023-02-13T06:04:28.980Z,67.77
2023-02-13T06:09:30.624Z,67.76
2023-02-13T06:14:32.277Z,67.37
2023-02-13T06:19:33.936Z,67.28
2023-02-13T06:24:35.558Z,67.08
2023-02-13T06:29:37.181Z,67.23
2023-02-13T06:34:38.764Z,67.21
2023-02-13T06:39:40.369Z,67.18
2023-02-13T06:44:41.987Z,67.35
2023-02-13T06:49:43.561Z,67.25
2023-02-13T06:54:47.943Z,67.21
2023-02-13T06:59:49.823Z,67.87
2023-02-13T07:04:51.470Z,67.73
2023-02-13T07:09:53.030Z,67.57
2023-02-13T07:14:54.686Z,67.68
2023-02-13T07:19:56.362Z,67.59
2023-02-13T07:24:59.088Z,67.63
2023-02-13T07:30:00.785Z,67.52
2023-02-13T07:35:02.834Z,67.34
2023-02-13T07:40:06.488Z,67.49
2023-02-13T07:45:08.904Z,67.67
2023-02-13T07:50:11.829Z,67.38
2023-02-13T07:55:13.458Z,67.14
2023-02-13T08:00:18.387Z,66.65
2023-02-13T08:05:24.738Z,66.60
2023-02-13T08:10:46.750Z,66.74
2023-02-13T08:15:48.678Z,66.71
2023-02-13T08:20:50.302Z,66.58
2023-02-13T08:25:52.449Z,66.28
2023-02-13T08:30:55.452Z,66.83
2023-02-13T08:35:57.372Z,66.35
2023-02-13T08:40:59.567Z,66.16
2023-02-13T08:46:01.668Z,65.88
2023-02-13T08:51:11.514Z,65.87
2023-02-13T08:56:13.235Z,65.38
2023-02-13T09:01:15.078Z,65.25
2023-02-13T09:06:16.920Z,65.27
2023-02-13T09:11:19.817Z,65.13
2023-02-13T09:16:22.518Z,64.99
2023-02-13T09:21:24.222Z,64.84
2023-02-13T09:26:25.872Z,64.92
2023-02-13T09:31:29.542Z,64.77
2023-02-13T09:36:31.485Z,64.72
2023-02-13T09:41:37.672Z,64.69
2023-02-13T09:46:41.053Z,64.62
2023-02-13T09:51:50.442Z,64.84
2023-02-13T09:57:02.020Z,64.77
2023-02-13T10:02:41.622Z,64.55
2023-02-13T10:07:51.261Z,64.93
2023-02-13T10:12:58.693Z,64.24
2023-02-13T10:18:05.403Z,64.63
2023-02-13T10:23:28.815Z,64.43
2023-02-13T10:28:33.608Z,63.93
2023-02-13T10:33:39.612Z,63.71
2023-02-13T10:39:03.112Z,62.72
2023-02-13T10:44:41.551Z,61.56
2023-02-13T10:49:52.806Z,61.97
2023-02-13T10:55:13.060Z,61.02
2023-02-13T11:00:38.941Z,61.06
2023-02-13T11:05:51.405Z,60.50
2023-02-13T11:10:53.614Z,60.61
2023-02-13T11:16:02.746Z,60.18
2023-02-13T11:21:17.875Z,59.47
2023-02-13T11:26:28.490Z,59.34
2023-02-13T11:31:32.657Z,59.30
2023-02-13T11:36:34.475Z,59.01
2023-02-13T11:41:42.306Z,58.29
2023-02-13T11:46:47.948Z,57.33
2023-02-13T11:51:54.544Z,56.90
2023-02-13T11:57:04.833Z,56.51
2023-02-13T12:02:21.276Z,55.32
2023-02-13T12:07:25.268Z,55.68
2023-02-13T12:12:36.746Z,55.58
2023-02-13T12:17:40.800Z,55.58
2023-02-13T12:23:09.770Z,55.24
2023-02-13T12:28:13.996Z,55.71
2023-02-13T12:33:21.763Z,55.27
2023-02-13T12:38:35.006Z,54.96
2023-02-13T12:44:20.629Z,53.51
2023-02-13T12:50:01.321Z,54.40
2023-02-13T12:55:21.456Z,55.07
2023-02-13T13:00:41.367Z,55.25
2023-02-13T13:06:14.475Z,53.79
2023-02-13T13:11:38.241Z,53.38
2023-02-13T13:16:57.447Z,53.56
2023-02-13T13:22:15.079Z,52.84
2023-02-13T13:27:26.272Z,53.07
2023-02-13T13:32:30.067Z,53.18
2023-02-13T13:37:42.829Z,52.49
2023-02-13T13:43:28.460Z,52.38
2023-02-13T13:48:51.931Z,51.54
2023-02-13T13:54:05.479Z,51.59
2023-02-13T13:59:17.285Z,51.37
2023-02-13T14:04:36.694Z,51.64
2023-02-13T14:09:43.233Z,51.11
2023-02-13T14:14:45.805Z,50.85
2023-02-13T14:19:52.891Z,49.78
2023-02-13T14:25:05.357Z,50.32
2023-02-13T14:30:27.479Z,49.52
2023-02-13T14:35:38.021Z,49.61
2023-02-13T14:40:49.904Z,49.82
2023-02-13T14:46:03.959Z,49.57
2023-02-13T14:51:06.401Z,49.60
2023-02-13T14:56:14.561Z,48.86
2023-02-13T15:01:32.425Z,48.08
2023-02-13T15:06:39.583Z,49.14
2023-02-13T15:11:43.454Z,48.74
2023-02-13T15:16:52.512Z,49.43
2023-02-13T15:21:57.362Z,49.46
2023-02-13T15:27:07.206Z,47.60
2023-02-13T15:32:19.827Z,48.37
2023-02-13T15:37:23.823Z,48.29
2023-02-13T15:42:25.442Z,48.02
2023-02-13T15:47:31.663Z,48.33
2023-02-13T15:52:36.878Z,47.96
2023-02-13T15:57:39.442Z,49.42
2023-02-13T16:02:46.226Z,50.04
2023-02-13T16:07:48.825Z,49.45
2023-02-13T16:12:50.475Z,48.83
2023-02-13T16:17:52.385Z,49.85
2023-02-13T16:23:03.262Z,50.36
2023-02-13T16:28:22.344Z,51.30
2023-02-13T16:33:44.606Z,52.36
2023-02-13T16:38:48.551Z,52.48
2023-02-13T16:43:53.854Z,52.75
2023-02-13T16:48:59.151Z,52.91
2023-02-13T16:54:03.893Z,53.38
2023-02-13T16:59:17.351Z,54.03
2023-02-13T17:04:24.119Z,54.54
2023-02-13T17:09:25.869Z,53.56
2023-02-13T17:14:27.531Z,53.25
2023-02-13T17:19:29.863Z,53.27
2023-02-13T17:24:31.728Z,54.09
2023-02-13T17:29:33.325Z,54.75
2023-02-13T17:34:34.895Z,56.10
2023-02-13T17:39:36.520Z,56.57
2023-02-13T17:44:38.134Z,57.28
2023-02-13T17:49:39.796Z,57.92
2023-02-13T17:54:41.595Z,58.53
2023-02-13T17:59:44.005Z,58.97
2023-02-13T18:04:46.616Z,59.03
2023-02-13T18:09:48.210Z,59.48
2023-02-13T18:14:51.021Z,59.85
2023-02-13T18:19:52.651Z,59.78
2023-02-13T18:24:54.323Z,59.96
2023-02-13T18:29:56.451Z,60.29
2023-02-13T18:34:58.105Z,60.65
2023-02-13T18:39:59.824Z,60.62
2023-02-13T18:45:01.761Z,61.18
2023-02-13T18:50:04.307Z,61.20
2023-02-13T18:55:09.448Z,61.82
2023-02-13T19:00:12.746Z,61.91
2023-02-13T19:05:14.520Z,62.11
2023-02-13T19:10:16.193Z,62.07
2023-02-13T19:15:17.916Z,62.34
2023-02-13T19:20:19.947Z,62.65
2023-02-13T19:25:22.419Z,62.63
2023-02-13T19:30:24.166Z,62.76
2023-02-13T19:35:25.949Z,62.86
2023-02-13T19:40:28.032Z,63.11
2023-02-13T19:45:29.661Z,63.17
2023-02-13T19:50:31.231Z,63.37
2023-02-13T19:55:32.844Z,63.02
2023-02-13T20:00:34.555Z,63.22
2023-02-13T20:05:40.079Z,63.41
2023-02-13T20:10:45.821Z,63.55
2023-02-13T20:15:47.865Z,63.35
2023-02-13T20:20:49.577Z,63.57
2023-02-13T20:25:51.538Z,63.54
2023-02-13T20:30:53.660Z,63.72
2023-02-13T20:35:56.143Z,63.89
2023-02-13T20:40:58.696Z,64.07
2023-02-13T20:46:01.562Z,63.85
2023-02-13T20:51:05.995Z,64.14
2023-02-13T20:56:19.115Z,64.03
2023-02-13T21:01:30.378Z,64.73
2023-02-13T21:06:34.929Z,64.52
2023-02-13T21:11:38.467Z,64.46
2023-02-13T21:16:41.716Z,64.74
2023-02-13T21:21:44.313Z,64.91
2023-02-13T21:26:47.261Z,64.69
2023-02-13T21:31:49.018Z,64.93
2023-02-13T21:36:50.688Z,64.85
2023-02-13T21:41:52.287Z,64.90
2023-02-13T21:46:54.197Z,65.24
2023-02-13T21:51:55.877Z,65.15
2023-02-13T21:56:57.525Z,65.11
2023-02-13T22:02:00.199Z,65.14
2023-02-13T22:07:02.156Z,65.33
2023-02-13T22:12:04.408Z,65.13
2023-02-13T22:17:06.134Z,65.34
2023-02-13T22:22:08.978Z,65.30
2023-02-13T22:27:10.630Z,65.20
2023-02-13T22:32:12.344Z,65.55
2023-02-13T22:37:14.023Z,65.53
2023-02-13T22:42:16.081Z,65.41
2023-02-13T22:47:17.636Z,65.61
2023-02-13T22:52:19.253Z,65.38
2023-02-13T22:57:20.823Z,65.46
2023-02-13T23:02:22.447Z,65.40
2023-02-13T23:07:24.069Z,65.50
2023-02-13T23:12:39.163Z,65.40
2023-02-13T23:18:00.442Z,65.32
2023-02-13T23:23:04.655Z,65.40
2023-02-13T23:28:06.983Z,65.43
2023-02-13T23:33:08.608Z,65.50
2023-02-13T23:38:10.271Z,65.49
2023-02-13T23:43:12.197Z,65.41
2023-02-13T23:48:13.874Z,65.57
2023-02-13T23:53:15.490Z,65.60
2023-02-13T23:58:17.131Z,65.28
